createdAt,value
2023-03-29T00:00:41.762Z,5.87
2023-03-29T00:03:09.505Z,5.85
2023-03-29T00:05:41.036Z,5.99
2023-03-29T00:08:09.318Z,6.00
2023-03-29T00:10:36.937Z,5.98
2023-03-29T00:13:04.755Z,6.04
2023-03-29T00:15:32.712Z,5.95
2023-03-29T00:18:00.757Z,6.02
2023-03-29T00:20:29.311Z,5.95
2023-03-29T00:22:58.371Z,6.08
2023-03-29T00:25:26.081Z,6.15
2023-03-29T00:27:53.737Z,6.07
2023-03-29T00:30:21.646Z,6.17
2023-03-29T00:32:49.727Z,6.12
2023-03-29T00:35:17.846Z,6.16
2023-03-29T00:37:47.000Z,6.17
2023-03-29T00:40:16.636Z,5.78
2023-03-29T00:42:45.730Z,6.34
2023-03-29T00:45:21.665Z,6.28
2023-03-29T00:47:52.364Z,6.32
2023-03-29T00:50:25.679Z,6.41
2023-03-29T00:52:58.130Z,6.53
2023-03-29T00:55:30.584Z,6.58
2023-03-29T00:58:00.822Z,6.55
2023-03-29T01:00:32.875Z,6.55
2023-03-29T01:03:03.046Z,6.57
2023-03-29T01:05:37.633Z,6.56
2023-03-29T01:08:11.106Z,6.39
2023-03-29T01:10:42.569Z,5.83
2023-03-29T01:13:13.920Z,6.54
2023-03-29T01:15:45.353Z,6.58
2023-03-29T01:18:13.936Z,6.62
2023-03-29T01:21:03.380Z,6.58
2023-03-29T01:23:47.230Z,6.60
2023-03-29T01:26:24.875Z,6.59
2023-03-29T01:28:58.639Z,6.52
2023-03-29T01:31:31.143Z,6.63
2023-03-29T01:34:04.744Z,6.87
2023-03-29T01:36:37.183Z,6.78
2023-03-29T01:39:07.647Z,6.79
2023-03-29T01:41:43.954Z,6.88
2023-03-29T01:44:18.225Z,6.82
2023-03-29T01:46:48.190Z,6.86
2023-03-29T01:49:24.609Z,6.77
2023-03-29T01:51:59.392Z,6.80
2023-03-29T01:54:32.516Z,6.76
2023-03-29T01:57:03.890Z,6.88
2023-03-29T01:59:37.679Z,6.83
2023-03-29T02:02:11.197Z,6.91
2023-03-29T02:04:45.814Z,6.95
2023-03-29T02:07:14.316Z,6.87
2023-03-29T02:09:43.353Z,6.74
2023-03-29T02:12:12.196Z,6.77
2023-03-29T02:14:41.229Z,6.86
2023-03-29T02:17:20.312Z,6.89
2023-03-29T02:19:51.338Z,6.91
2023-03-29T02:22:25.690Z,6.87
2023-03-29T02:24:58.988Z,6.19
2023-03-29T02:27:28.913Z,6.91
2023-03-29T02:29:57.985Z,6.98
2023-03-29T02:32:32.201Z,7.11
2023-03-29T02:35:03.194Z,7.07
2023-03-29T02:37:34.406Z,7.04
2023-03-29T02:40:12.471Z,6.93
2023-03-29T02:42:41.476Z,6.98
2023-03-29T02:45:14.060Z,6.91
2023-03-29T02:47:45.245Z,6.89
2023-03-29T02:50:13.766Z,6.91
2023-03-29T02:52:47.117Z,6.91
2023-03-29T02:55:18.683Z,6.75
2023-03-29T02:57:46.498Z,6.81
2023-03-29T03:00:20.072Z,6.62
2023-03-29T03:02:48.946Z,6.61
2023-03-29T03:05:17.496Z,6.51
2023-03-29T03:07:46.140Z,6.61
2023-03-29T03:10:14.594Z,6.26
2023-03-29T03:12:42.368Z,6.14
2023-03-29T03:15:10.607Z,6.36
2023-03-29T03:17:41.918Z,6.38
2023-03-29T03:20:13.682Z,6.44
2023-03-29T03:22:43.998Z,6.47
2023-03-29T03:25:12.904Z,6.39
2023-03-29T03:27:41.263Z,6.44
2023-03-29T03:30:10.999Z,6.50
2023-03-29T03:33:05.041Z,6.41
2023-03-29T03:35:51.101Z,6.27
2023-03-29T03:38:18.956Z,5.99
2023-03-29T03:40:57.354Z,5.88
2023-03-29T03:43:26.202Z,5.85
2023-03-29T03:45:54.519Z,5.82
2023-03-29T03:48:26.999Z,5.76
2023-03-29T03:51:11.115Z,5.52
2023-03-29T03:53:39.032Z,5.48
2023-03-29T03:56:34.173Z,5.34
2023-03-29T03:59:05.067Z,5.40
2023-03-29T04:01:45.306Z,5.46
2023-03-29T04:04:19.524Z,5.40
2023-03-29T04:07:02.694Z,5.53
2023-03-29T04:09:45.114Z,5.52
2023-03-29T04:12:44.953Z,5.62
2023-03-29T04:15:12.749Z,5.69
2023-03-29T04:17:46.607Z,5.86
2023-03-29T04:20:41.741Z,5.91
2023-03-29T04:23:10.578Z,5.98
2023-03-29T04:25:40.692Z,6.04
2023-03-29T04:28:40.859Z,5.86
2023-03-29T04:31:16.890Z,5.85
2023-03-29T04:34:10.692Z,6.19
2023-03-29T04:36:39.783Z,6.37
2023-03-29T04:39:14.465Z,6.46
2023-03-29T04:41:43.089Z,6.72
2023-03-29T04:44:19.811Z,6.85
2023-03-29T04:46:47.568Z,6.88
2023-03-29T04:49:42.753Z,6.73
2023-03-29T04:52:19.243Z,6.82
2023-03-29T04:54:46.975Z,6.87
2023-03-29T04:57:37.492Z,7.10
2023-03-29T05:00:20.388Z,7.27
2023-03-29T05:03:13.606Z,7.56
2023-03-29T05:05:52.456Z,7.64
2023-03-29T05:08:21.646Z,7.62
2023-03-29T05:11:13.578Z,7.89
2023-03-29T05:13:42.469Z,7.96
2023-03-29T05:16:11.158Z,8.08
2023-03-29T05:18:39.550Z,8.23
2023-03-29T05:21:07.573Z,8.24
2023-03-29T05:23:39.536Z,8.08
2023-03-29T05:26:27.714Z,8.21
2023-03-29T05:28:56.898Z,8.31
2023-03-29T05:31:24.811Z,8.22
2023-03-29T05:33:55.453Z,8.21
2023-03-29T05:36:23.431Z,8.32
2023-03-29T05:38:53.210Z,8.32
2023-03-29T05:41:23.807Z,8.47
2023-03-29T05:44:23.695Z,8.31
2023-03-29T05:46:57.186Z,8.46
2023-03-29T05:49:25.776Z,8.58
2023-03-29T05:52:08.000Z,8.46
2023-03-29T05:54:38.980Z,8.57
2023-03-29T05:57:08.382Z,8.44
2023-03-29T05:59:36.971Z,8.60
2023-03-29T06:02:05.456Z,8.71
2023-03-29T06:04:36.406Z,8.72
2023-03-29T06:07:27.070Z,8.63
2023-03-29T06:10:14.425Z,8.51
2023-03-29T06:12:46.881Z,8.58
2023-03-29T06:15:15.343Z,8.54
2023-03-29T06:17:47.610Z,8.50
2023-03-29T06:20:17.043Z,8.50
2023-03-29T06:22:49.880Z,8.68
2023-03-29T06:25:19.641Z,8.88
2023-03-29T06:27:49.474Z,8.87
2023-03-29T06:30:20.817Z,9.04
2023-03-29T06:32:52.166Z,9.07
2023-03-29T06:35:50.423Z,9.01
2023-03-29T06:38:22.783Z,8.97
2023-03-29T06:41:04.165Z,8.99
2023-03-29T06:43:46.115Z,8.88
2023-03-29T06:46:17.041Z,9.19
2023-03-29T06:48:55.154Z,9.36
2023-03-29T06:51:24.488Z,9.39
2023-03-29T06:53:52.314Z,9.50
2023-03-29T06:56:22.280Z,9.46
2023-03-29T06:59:04.624Z,9.45
2023-03-29T07:01:45.238Z,9.55
2023-03-29T07:04:24.550Z,9.66
2023-03-29T07:07:19.947Z,9.71
2023-03-29T07:09:55.524Z,9.47
2023-03-29T07:12:46.105Z,9.26
2023-03-29T07:15:16.140Z,9.50
2023-03-29T07:18:05.475Z,9.56
2023-03-29T07:20:33.893Z,9.84
2023-03-29T07:23:09.422Z,9.90
2023-03-29T07:25:38.264Z,10.07
2023-03-29T07:28:08.225Z,10.33
2023-03-29T07:30:37.135Z,10.30
2023-03-29T07:33:20.067Z,10.45
2023-03-29T07:35:57.436Z,10.64
2023-03-29T07:38:26.249Z,10.71
2023-03-29T07:41:00.712Z,10.50
2023-03-29T07:43:43.375Z,10.30
2023-03-29T07:46:12.946Z,10.67
2023-03-29T07:48:41.215Z,10.84
2023-03-29T07:51:11.839Z,10.85
2023-03-29T07:53:44.729Z,10.96
2023-03-29T07:56:30.731Z,11.04
2023-03-29T07:59:11.950Z,11.02
2023-03-29T08:01:41.989Z,11.27
2023-03-29T08:04:30.312Z,11.24
2023-03-29T08:07:19.084Z,11.03
2023-03-29T08:09:58.806Z,11.27
2023-03-29T08:12:43.098Z,11.45
2023-03-29T08:15:13.174Z,11.44
2023-03-29T08:17:41.772Z,11.33
2023-03-29T08:20:12.486Z,11.36
2023-03-29T08:22:43.806Z,11.55
2023-03-29T08:25:14.135Z,11.52
2023-03-29T08:27:47.086Z,11.60
2023-03-29T08:30:22.678Z,11.62
2023-03-29T08:32:54.543Z,11.72
2023-03-29T08:35:23.828Z,11.72
2023-03-29T08:38:04.206Z,12.14
2023-03-29T08:40:31.989Z,12.32
2023-03-29T08:43:15.606Z,12.13
2023-03-29T08:46:19.034Z,12.07
2023-03-29T08:48:53.707Z,11.88
2023-03-29T08:51:28.502Z,11.76
2023-03-29T08:54:01.390Z,11.71
2023-03-29T08:57:02.958Z,11.67
2023-03-29T08:59:35.832Z,11.87
2023-03-29T09:02:17.775Z,11.97
2023-03-29T09:04:49.434Z,12.07
2023-03-29T09:07:28.295Z,12.50
2023-03-29T09:09:57.066Z,12.71
2023-03-29T09:12:39.670Z,12.60
2023-03-29T09:15:12.612Z,12.51
2023-03-29T09:17:57.002Z,12.20
2023-03-29T09:20:37.675Z,12.39
2023-03-29T09:23:18.242Z,12.43
2023-03-29T09:26:18.641Z,12.08
2023-03-29T09:29:18.254Z,11.93
2023-03-29T09:31:46.405Z,12.46
2023-03-29T09:34:22.771Z,12.89
2023-03-29T09:37:04.688Z,12.72
2023-03-29T09:39:32.598Z,12.45
2023-03-29T09:42:11.836Z,12.40
2023-03-29T09:44:44.933Z,12.66
2023-03-29T09:47:23.341Z,12.48
2023-03-29T09:49:56.936Z,12.49
2023-03-29T09:52:24.783Z,12.71
2023-03-29T09:55:05.828Z,12.69
2023-03-29T09:57:46.234Z,12.85
2023-03-29T10:00:17.037Z,12.77
2023-03-29T10:02:52.546Z,13.20
2023-03-29T10:05:27.403Z,13.48
2023-03-29T10:07:59.474Z,13.44
2023-03-29T10:10:31.824Z,13.45
2023-03-29T10:13:01.975Z,13.44
2023-03-29T10:15:31.183Z,13.01
2023-03-29T10:18:00.795Z,13.25
2023-03-29T10:20:30.320Z,13.44
2023-03-29T10:23:00.722Z,13.39
2023-03-29T10:25:31.213Z,13.36
2023-03-29T10:28:05.066Z,13.83
2023-03-29T10:30:37.127Z,14.26
2023-03-29T10:33:05.147Z,14.56
2023-03-29T10:35:40.247Z,14.59
2023-03-29T10:38:13.266Z,14.94
2023-03-29T10:40:45.285Z,14.59
2023-03-29T10:43:16.258Z,14.57
2023-03-29T10:45:44.855Z,14.60
2023-03-29T10:48:14.686Z,14.51
2023-03-29T10:50:43.765Z,14.64
2023-03-29T10:53:17.571Z,14.42
2023-03-29T10:55:52.351Z,14.80
2023-03-29T10:58:31.909Z,14.58
2023-03-29T11:00:59.819Z,14.55
2023-03-29T11:03:50.290Z,14.54
2023-03-29T11:06:26.783Z,14.61
2023-03-29T11:08:59.557Z,14.88
2023-03-29T11:11:48.329Z,15.03
2023-03-29T11:14:26.822Z,15.16
2023-03-29T11:17:06.063Z,15.43
2023-03-29T11:19:53.731Z,15.83
2023-03-29T11:22:26.807Z,15.75
2023-03-29T11:25:09.991Z,15.73
2023-03-29T11:27:46.790Z,15.45
2023-03-29T11:30:21.576Z,15.39
2023-03-29T11:32:57.799Z,15.42
2023-03-29T11:35:42.864Z,15.39
2023-03-29T11:38:21.053Z,15.35
2023-03-29T11:40:58.795Z,15.09
2023-03-29T11:43:31.135Z,15.42
2023-03-29T11:46:04.532Z,15.61
2023-03-29T11:48:35.723Z,15.49
2023-03-29T11:51:11.169Z,15.23
2023-03-29T11:53:51.632Z,15.22
2023-03-29T11:56:29.211Z,15.32
2023-03-29T11:59:04.640Z,15.36
2023-03-29T12:01:36.618Z,15.55
2023-03-29T12:04:08.575Z,15.91
2023-03-29T12:06:42.849Z,15.60
2023-03-29T12:09:23.729Z,15.47
2023-03-29T12:11:58.236Z,16.21
2023-03-29T12:14:29.298Z,16.73
2023-03-29T12:17:01.980Z,16.47
2023-03-29T12:19:34.298Z,16.23
2023-03-29T12:22:03.354Z,16.43
2023-03-29T12:24:37.386Z,16.18
2023-03-29T12:27:20.743Z,15.98
2023-03-29T12:30:11.605Z,16.18
2023-03-29T12:32:52.042Z,16.34
2023-03-29T12:35:47.523Z,16.65
2023-03-29T12:38:48.752Z,17.02
2023-03-29T12:41:51.831Z,17.20
2023-03-29T12:44:46.647Z,17.38
2023-03-29T12:47:26.044Z,17.48
2023-03-29T12:49:57.257Z,17.61
2023-03-29T12:52:28.007Z,17.94
2023-03-29T12:54:57.764Z,17.86
2023-03-29T12:57:39.375Z,17.90
2023-03-29T13:00:21.605Z,17.32
2023-03-29T13:03:01.936Z,17.16
2023-03-29T13:05:34.260Z,17.44
2023-03-29T13:08:12.954Z,17.28
2023-03-29T13:10:43.057Z,17.09
2023-03-29T13:13:19.829Z,17.35
2023-03-29T13:15:48.738Z,17.36
2023-03-29T13:18:39.083Z,17.60
2023-03-29T13:21:18.676Z,17.83
2023-03-29T13:23:59.599Z,17.97
2023-03-29T13:26:47.802Z,18.24
2023-03-29T13:29:54.111Z,18.48
2023-03-29T13:32:47.036Z,18.73
2023-03-29T13:35:23.951Z,18.71
2023-03-29T13:38:00.991Z,18.70
2023-03-29T13:40:45.101Z,18.51
2023-03-29T13:43:22.547Z,18.42
2023-03-29T13:46:07.610Z,18.64
2023-03-29T13:49:01.428Z,18.54
2023-03-29T13:51:41.927Z,18.39
2023-03-29T13:54:21.901Z,18.39
2023-03-29T13:57:09.856Z,18.29
2023-03-29T13:59:51.370Z,18.11
2023-03-29T14:02:41.660Z,18.04
2023-03-29T14:05:13.754Z,18.01
2023-03-29T14:07:48.201Z,18.05
2023-03-29T14:10:19.386Z,18.17
2023-03-29T14:12:47.963Z,17.64
2023-03-29T14:15:23.785Z,17.69
2023-03-29T14:17:58.914Z,17.65
2023-03-29T14:20:28.756Z,18.08
2023-03-29T14:22:56.468Z,18.56
2023-03-29T14:25:25.508Z,18.48
2023-03-29T14:27:53.188Z,18.60
2023-03-29T14:30:24.586Z,18.17
2023-03-29T14:32:52.501Z,17.80
2023-03-29T14:35:30.498Z,17.52
2023-03-29T14:37:59.423Z,17.21
2023-03-29T14:40:27.658Z,17.33
2023-03-29T14:42:56.234Z,16.98
2023-03-29T14:45:24.397Z,17.02
2023-03-29T14:47:53.101Z,16.86
2023-03-29T14:50:25.049Z,16.63
2023-03-29T14:52:53.219Z,16.56
2023-03-29T14:55:23.720Z,16.75
2023-03-29T14:57:54.542Z,16.57
2023-03-29T15:00:27.796Z,16.79
2023-03-29T15:02:58.167Z,17.09
2023-03-29T15:05:33.907Z,17.04
2023-03-29T15:08:02.804Z,17.01
2023-03-29T15:10:32.966Z,16.83
2023-03-29T15:13:03.155Z,17.04
2023-03-29T15:15:34.562Z,17.08
2023-03-29T15:18:03.881Z,17.15
2023-03-29T15:20:37.517Z,16.93
2023-03-29T15:23:20.058Z,16.84
2023-03-29T15:25:52.076Z,16.53
2023-03-29T15:28:30.634Z,16.78
2023-03-29T15:31:07.751Z,16.74
2023-03-29T15:33:37.882Z,16.59
2023-03-29T15:36:10.014Z,16.51
2023-03-29T15:38:44.449Z,16.36
2023-03-29T15:41:15.368Z,16.42
2023-03-29T15:43:44.000Z,15.73
2023-03-29T15:46:13.486Z,15.93
2023-03-29T15:48:41.936Z,15.87
2023-03-29T15:51:12.323Z,15.85
2023-03-29T15:53:40.788Z,16.10
2023-03-29T15:56:11.212Z,16.25
2023-03-29T15:59:01.585Z,16.26
2023-03-29T16:01:34.787Z,16.34
2023-03-29T16:04:04.371Z,16.37
2023-03-29T16:06:34.461Z,16.20
2023-03-29T16:09:02.146Z,16.05
2023-03-29T16:11:29.868Z,16.05
2023-03-29T16:13:58.287Z,16.06
2023-03-29T16:16:26.320Z,16.03
2023-03-29T16:18:54.038Z,16.08
2023-03-29T16:21:24.248Z,15.52
2023-03-29T16:23:53.313Z,15.95
2023-03-29T16:26:22.151Z,15.89
2023-03-29T16:28:49.825Z,15.92
2023-03-29T16:31:17.475Z,16.22
2023-03-29T16:33:45.221Z,15.90
2023-03-29T16:36:13.106Z,15.88
2023-03-29T16:38:41.523Z,16.10
2023-03-29T16:41:16.303Z,16.01
2023-03-29T16:43:44.392Z,15.82
2023-03-29T16:46:12.863Z,15.90
2023-03-29T16:48:40.580Z,15.75
2023-03-29T16:51:08.822Z,15.86
2023-03-29T16:53:36.523Z,15.92
2023-03-29T16:56:04.903Z,15.88
2023-03-29T16:58:39.716Z,15.75
2023-03-29T17:01:09.868Z,15.79
2023-03-29T17:03:38.217Z,15.71
2023-03-29T17:06:06.804Z,15.67
2023-03-29T17:08:34.793Z,15.48
2023-03-29T17:11:02.950Z,15.33
2023-03-29T17:13:31.058Z,15.47
2023-03-29T17:16:00.350Z,15.41
2023-03-29T17:18:28.638Z,15.31
2023-03-29T17:20:57.912Z,15.31
2023-03-29T17:23:26.439Z,15.23
2023-03-29T17:25:55.579Z,15.25
2023-03-29T17:28:23.484Z,15.04
2023-03-29T17:30:51.270Z,14.95
2023-03-29T17:33:22.495Z,15.02
2023-03-29T17:35:50.580Z,14.87
2023-03-29T17:38:19.329Z,15.01
2023-03-29T17:40:53.076Z,14.87
2023-03-29T17:43:20.859Z,15.04
2023-03-29T17:45:51.650Z,15.04
2023-03-29T17:48:21.269Z,14.90
2023-03-29T17:50:49.010Z,14.80
2023-03-29T17:53:16.717Z,14.55
2023-03-29T17:55:44.401Z,14.52
2023-03-29T17:58:12.198Z,14.43
2023-03-29T18:00:39.949Z,14.47
2023-03-29T18:03:08.075Z,14.29
2023-03-29T18:05:37.703Z,14.21
2023-03-29T18:08:05.817Z,14.14
2023-03-29T18:10:33.584Z,14.09
2023-03-29T18:13:01.558Z,14.00
2023-03-29T18:15:29.648Z,14.10
2023-03-29T18:17:57.521Z,13.91
2023-03-29T18:20:25.350Z,13.88
2023-03-29T18:22:54.423Z,13.80
2023-03-29T18:25:22.465Z,13.81
2023-03-29T18:27:50.235Z,13.82
2023-03-29T18:30:18.014Z,13.65
2023-03-29T18:32:45.770Z,13.51
2023-03-29T18:35:13.479Z,13.42
2023-03-29T18:37:41.167Z,13.36
2023-03-29T18:40:10.981Z,13.42
2023-03-29T18:42:38.652Z,13.35
2023-03-29T18:45:07.176Z,13.41
2023-03-29T18:47:34.862Z,13.07
2023-03-29T18:50:02.780Z,13.28
2023-03-29T18:52:30.536Z,13.57
2023-03-29T18:54:58.255Z,13.96
2023-03-29T18:57:27.478Z,14.24
2023-03-29T18:59:55.231Z,14.66
2023-03-29T19:02:22.957Z,14.89
2023-03-29T19:04:51.081Z,15.20
2023-03-29T19:07:18.775Z,14.93
2023-03-29T19:09:46.480Z,15.02
2023-03-29T19:12:14.121Z,15.15
2023-03-29T19:14:43.102Z,15.41
2023-03-29T19:17:10.896Z,15.57
2023-03-29T19:19:38.754Z,15.51
2023-03-29T19:22:06.438Z,15.52
2023-03-29T19:24:34.161Z,15.59
2023-03-29T19:27:01.834Z,15.68
2023-03-29T19:29:29.645Z,15.82
2023-03-29T19:31:58.811Z,15.83
2023-03-29T19:34:27.058Z,15.97
2023-03-29T19:36:55.156Z,16.11
2023-03-29T19:39:24.933Z,16.21
2023-03-29T19:41:52.842Z,16.32
2023-03-29T19:44:21.013Z,16.18
2023-03-29T19:46:48.680Z,16.01
2023-03-29T19:49:17.918Z,15.74
2023-03-29T19:51:46.021Z,15.58
2023-03-29T19:54:14.156Z,15.11
2023-03-29T19:56:42.842Z,14.84
2023-03-29T19:59:14.739Z,14.84
2023-03-29T20:01:50.610Z,14.35
2023-03-29T20:04:20.771Z,14.53
2023-03-29T20:06:48.452Z,14.43
2023-03-29T20:09:16.715Z,14.39
2023-03-29T20:11:46.597Z,14.19
2023-03-29T20:14:14.650Z,14.06
2023-03-29T20:16:43.440Z,14.03
2023-03-29T20:19:13.905Z,14.05
2023-03-29T20:21:43.826Z,14.30
2023-03-29T20:24:11.995Z,14.05
2023-03-29T20:26:39.684Z,13.95
2023-03-29T20:29:07.981Z,13.85
2023-03-29T20:31:35.758Z,13.90
2023-03-29T20:34:03.452Z,13.89
2023-03-29T20:36:31.696Z,14.24
2023-03-29T20:39:01.251Z,14.88
2023-03-29T20:41:29.053Z,14.62
2023-03-29T20:43:59.390Z,14.60
2023-03-29T20:46:33.185Z,14.22
2023-03-29T20:49:01.520Z,14.21
2023-03-29T20:51:30.336Z,14.23
2023-03-29T20:54:02.072Z,14.23
2023-03-29T20:56:32.103Z,13.95
2023-03-29T20:58:59.883Z,13.89
2023-03-29T21:01:27.903Z,13.71
2023-03-29T21:03:55.866Z,13.76
2023-03-29T21:06:24.314Z,13.59
2023-03-29T21:08:52.550Z,13.60
2023-03-29T21:11:21.051Z,13.55
2023-03-29T21:13:50.138Z,14.07
2023-03-29T21:16:17.909Z,14.15
2023-03-29T21:18:45.910Z,14.52
2023-03-29T21:21:14.628Z,14.96
2023-03-29T21:23:42.375Z,15.43
2023-03-29T21:26:10.093Z,15.78
2023-03-29T21:28:38.459Z,16.01
2023-03-29T21:31:08.140Z,15.82
2023-03-29T21:33:36.575Z,16.04
2023-03-29T21:36:04.885Z,16.11
2023-03-29T21:38:32.708Z,16.28
2023-03-29T21:41:02.468Z,16.24
2023-03-29T21:43:30.412Z,16.63
2023-03-29T21:45:58.120Z,16.59
2023-03-29T21:48:27.250Z,16.75
2023-03-29T21:50:54.982Z,16.61
2023-03-29T21:53:22.705Z,16.80
2023-03-29T21:55:50.546Z,16.64
2023-03-29T21:58:19.316Z,16.56
2023-03-29T22:00:48.214Z,16.85
2023-03-29T22:03:16.841Z,16.85
2023-03-29T22:05:56.382Z,16.82
2023-03-29T22:08:26.220Z,16.97
2023-03-29T22:10:56.668Z,16.99
2023-03-29T22:13:25.039Z,17.07
2023-03-29T22:15:58.562Z,17.02
2023-03-29T22:18:27.763Z,17.00
2023-03-29T22:20:58.184Z,16.94
2023-03-29T22:23:25.853Z,16.84
2023-03-29T22:25:53.953Z,16.88
2023-03-29T22:28:21.616Z,16.77
2023-03-29T22:30:49.266Z,16.75
2023-03-29T22:33:17.185Z,16.77
2023-03-29T22:35:45.465Z,16.80
2023-03-29T22:38:14.568Z,16.88
2023-03-29T22:40:42.291Z,16.68
2023-03-29T22:43:09.986Z,16.69
2023-03-29T22:45:37.773Z,16.78
2023-03-29T22:48:05.975Z,16.72
2023-03-29T22:50:33.871Z,16.20
2023-03-29T22:53:01.818Z,16.80
2023-03-29T22:55:31.032Z,16.80
2023-03-29T22:57:58.691Z,16.66
2023-03-29T23:00:26.331Z,16.71
2023-03-29T23:02:54.210Z,16.59
2023-03-29T23:05:21.892Z,16.60
2023-03-29T23:07:49.637Z,16.57
2023-03-29T23:10:17.523Z,16.52
2023-03-29T23:12:49.325Z,16.56
2023-03-29T23:15:17.853Z,16.54
2023-03-29T23:17:45.546Z,16.51
2023-03-29T23:20:13.846Z,16.51
2023-03-29T23:22:41.550Z,16.41
2023-03-29T23:25:09.930Z,16.47
2023-03-29T23:27:37.743Z,16.44
2023-03-29T23:30:08.750Z,16.30
2023-03-29T23:32:36.509Z,16.36
2023-03-29T23:35:04.960Z,16.26
2023-03-29T23:37:32.748Z,16.13
2023-03-29T23:40:00.452Z,16.43
2023-03-29T23:42:30.279Z,16.39
2023-03-29T23:44:57.921Z,16.20
2023-03-29T23:47:27.459Z,16.16
2023-03-29T23:49:55.157Z,16.34
2023-03-29T23:52:23.078Z,16.31
2023-03-29T23:54:51.163Z,16.33
2023-03-29T23:57:19.423Z,16.31
2023-03-29T23:59:47.140Z,16.30
